sensor_id;sensor_type;location;lat;lon;timestamp;pressure;altitude;pressure_sealevel;temperature;humidity
13209;BME280;6669;42.678;23.332;2023-05-12T00:00:46;94787.00;;;9.07;100.00
13209;BME280;6669;42.678;23.332;2023-05-12T00:03:14;94764.41;;;8.83;100.00
13209;BME280;6669;42.678;23.332;2023-05-12T00:05:42;94791.06;;;9.02;100.00
13209;BME280;6669;42.678;23.332;2023-05-12T00:08:10;94750.31;;;8.77;100.00
13209;BME280;6669;42.678;23.332;2023-05-12T00:10:38;94776.13;;;8.87;100.00
13209;BME280;6669;42.678;23.332;2023-05-12T00:13:08;94786.81;;;8.92;100.00
13209;BME280;6669;42.678;23.332;2023-05-12T00:15:36;94784.69;;;8.88;100.00
13209;BME280;6669;42.678;23.332;2023-05-12T00:18:05;94769.28;;;8.86;100.00
13209;BME280;6669;42.678;23.332;2023-05-12T00:20:33;94788.06;;;8.88;100.00
13209;BME280;6669;42.678;23.332;2023-05-12T00:23:01;94758.38;;;8.66;100.00
13209;BME280;6669;42.678;23.332;2023-05-12T00:25:29;94790.16;;;8.76;100.00
13209;BME280;6669;42.678;23.332;2023-05-12T00:27:57;94781.09;;;8.80;100.00
13209;BME280;6669;42.678;23.332;2023-05-12T00:30:26;94790.03;;;8.86;100.00
13209;BME280;6669;42.678;23.332;2023-05-12T00:32:54;94776.06;;;8.71;100.00
13209;BME280;6669;42.678;23.332;2023-05-12T00:35:22;94784.97;;;8.68;100.00
13209;BME280;6669;42.678;23.332;2023-05-12T00:37:50;94796.91;;;8.61;100.00
13209;BME280;6669;42.678;23.332;2023-05-12T00:40:18;94790.44;;;8.65;100.00
13209;BME280;6669;42.678;23.332;2023-05-12T00:42:47;94793.03;;;8.65;100.00
13209;BME280;6669;42.678;23.332;2023-05-12T00:45:15;94788.78;;;8.56;100.00
13209;BME280;6669;42.678;23.332;2023-05-12T00:47:45;94775.66;;;8.31;100.00
13209;BME280;6669;42.678;23.332;2023-05-12T00:50:13;94786.81;;;8.49;100.00
13209;BME280;6669;42.678;23.332;2023-05-12T00:52:42;94782.47;;;8.32;100.00
13209;BME280;6669;42.678;23.332;2023-05-12T00:55:10;94804.50;;;8.36;100.00
13209;BME280;6669;42.678;23.332;2023-05-12T00:57:39;94805.63;;;8.33;100.00
13209;BME280;6669;42.678;23.332;2023-05-12T01:00:11;94805.06;;;8.22;100.00
13209;BME280;6669;42.678;23.332;2023-05-12T01:02:39;94804.72;;;8.16;100.00
13209;BME280;6669;42.678;23.332;2023-05-12T01:05:09;94799.03;;;8.13;100.00
13209;BME280;6669;42.678;23.332;2023-05-12T01:07:38;94792.94;;;7.96;100.00
13209;BME280;6669;42.678;23.332;2023-05-12T01:10:16;94802.19;;;7.98;100.00
13209;BME280;6669;42.678;23.332;2023-05-12T01:12:44;94780.41;;;7.83;100.00
13209;BME280;6669;42.678;23.332;2023-05-12T01:15:13;94793.53;;;7.90;100.00
13209;BME280;6669;42.678;23.332;2023-05-12T01:17:45;94767.28;;;7.58;100.00
13209;BME280;6669;42.678;23.332;2023-05-12T01:20:15;94780.66;;;7.53;100.00
13209;BME280;6669;42.678;23.332;2023-05-12T01:22:46;94782.63;;;7.60;100.00
13209;BME280;6669;42.678;23.332;2023-05-12T01:25:16;94773.19;;;7.50;100.00
13209;BME280;6669;42.678;23.332;2023-05-12T01:27:45;94774.66;;;7.53;100.00
13209;BME280;6669;42.678;23.332;2023-05-12T01:30:16;94792.13;;;7.51;100.00
13209;BME280;6669;42.678;23.332;2023-05-12T01:32:44;94795.44;;;7.43;100.00
13209;BME280;6669;42.678;23.332;2023-05-12T01:35:13;94791.81;;;7.54;100.00
13209;BME280;6669;42.678;23.332;2023-05-12T01:37:41;94793.88;;;7.50;100.00
13209;BME280;6669;42.678;23.332;2023-05-12T01:40:09;94788.19;;;7.47;100.00
13209;BME280;6669;42.678;23.332;2023-05-12T01:42:38;94790.56;;;7.40;100.00
13209;BME280;6669;42.678;23.332;2023-05-12T01:45:09;94783.50;;;7.24;100.00
13209;BME280;6669;42.678;23.332;2023-05-12T01:47:37;94788.13;;;7.20;100.00
13209;BME280;6669;42.678;23.332;2023-05-12T01:50:05;94783.75;;;7.03;100.00
13209;BME280;6669;42.678;23.332;2023-05-12T01:52:33;94779.53;;;7.02;100.00
13209;BME280;6669;42.678;23.332;2023-05-12T01:55:02;94794.84;;;7.13;100.00
13209;BME280;6669;42.678;23.332;2023-05-12T01:57:30;94786.72;;;7.08;100.00
13209;BME280;6669;42.678;23.332;2023-05-12T01:59:58;94783.19;;;7.09;100.00
13209;BME280;6669;42.678;23.332;2023-05-12T02:02:28;94766.91;;;6.99;100.00
13209;BME280;6669;42.678;23.332;2023-05-12T02:04:57;94780.75;;;7.08;100.00
13209;BME280;6669;42.678;23.332;2023-05-12T02:07:25;94773.09;;;6.88;100.00
13209;BME280;6669;42.678;23.332;2023-05-12T02:09:53;94759.81;;;7.01;100.00
13209;BME280;6669;42.678;23.332;2023-05-12T02:12:21;94779.16;;;6.97;100.00
13209;BME280;6669;42.678;23.332;2023-05-12T02:14:49;94768.94;;;7.05;100.00
13209;BME280;6669;42.678;23.332;2023-05-12T02:17:17;94778.59;;;7.03;100.00
13209;BME280;6669;42.678;23.332;2023-05-12T02:19:47;94780.00;;;7.15;100.00
13209;BME280;6669;42.678;23.332;2023-05-12T02:22:15;94781.91;;;7.13;100.00
13209;BME280;6669;42.678;23.332;2023-05-12T02:24:43;94784.88;;;7.18;100.00
13209;BME280;6669;42.678;23.332;2023-05-12T02:27:11;94754.75;;;7.09;100.00
13209;BME280;6669;42.678;23.332;2023-05-12T02:29:39;94762.88;;;7.14;100.00
13209;BME280;6669;42.678;23.332;2023-05-12T02:32:07;94776.38;;;7.26;100.00
13209;BME280;6669;42.678;23.332;2023-05-12T02:34:35;94775.94;;;7.31;100.00
13209;BME280;6669;42.678;23.332;2023-05-12T02:37:05;94780.16;;;7.32;100.00
13209;BME280;6669;42.678;23.332;2023-05-12T02:39:33;94725.09;;;7.03;100.00
13209;BME280;6669;42.678;23.332;2023-05-12T02:42:01;94785.25;;;7.42;100.00
13209;BME280;6669;42.678;23.332;2023-05-12T02:44:29;94778.53;;;7.49;100.00
13209;BME280;6669;42.678;23.332;2023-05-12T02:46:57;94761.44;;;7.38;100.00
13209;BME280;6669;42.678;23.332;2023-05-12T02:49:25;94776.00;;;7.39;100.00
13209;BME280;6669;42.678;23.332;2023-05-12T02:51:53;94779.84;;;7.35;100.00
13209;BME280;6669;42.678;23.332;2023-05-12T02:54:23;94752.22;;;7.17;100.00
13209;BME280;6669;42.678;23.332;2023-05-12T02:56:50;94749.63;;;7.17;100.00
13209;BME280;6669;42.678;23.332;2023-05-12T02:59:18;94756.50;;;7.09;100.00
13209;BME280;6669;42.678;23.332;2023-05-12T03:01:47;94727.78;;;6.94;100.00
13209;BME280;6669;42.678;23.332;2023-05-12T03:04:15;94780.66;;;7.17;100.00
13209;BME280;6669;42.678;23.332;2023-05-12T03:06:43;94764.63;;;6.96;100.00
13209;BME280;6669;42.678;23.332;2023-05-12T03:09:11;94762.47;;;6.91;100.00
13209;BME280;6669;42.678;23.332;2023-05-12T03:11:40;94776.56;;;6.97;100.00
13209;BME280;6669;42.678;23.332;2023-05-12T03:14:08;94777.91;;;7.01;100.00
13209;BME280;6669;42.678;23.332;2023-05-12T03:16:36;94777.63;;;7.04;100.00
13209;BME280;6669;42.678;23.332;2023-05-12T03:19:04;94779.91;;;7.07;100.00
13209;BME280;6669;42.678;23.332;2023-05-12T03:21:32;94786.03;;;7.06;100.00
13209;BME280;6669;42.678;23.332;2023-05-12T03:24:01;94779.53;;;7.02;100.00
13209;BME280;6669;42.678;23.332;2023-05-12T03:26:29;94756.63;;;6.89;100.00
13209;BME280;6669;42.678;23.332;2023-05-12T03:28:58;94782.13;;;7.02;100.00
13209;BME280;6669;42.678;23.332;2023-05-12T03:31:26;94773.03;;;6.98;100.00
13209;BME280;6669;42.678;23.332;2023-05-12T03:33:54;94794.03;;;7.13;100.00
13209;BME280;6669;42.678;23.332;2023-05-12T03:36:22;94784.13;;;7.08;100.00
13209;BME280;6669;42.678;23.332;2023-05-12T03:38:50;94778.94;;;6.90;100.00
13209;BME280;6669;42.678;23.332;2023-05-12T03:41:18;94786.91;;;6.97;100.00
13209;BME280;6669;42.678;23.332;2023-05-12T03:43:47;94790.19;;;6.99;100.00
13209;BME280;6669;42.678;23.332;2023-05-12T03:46:17;94778.00;;;6.91;100.00
13209;BME280;6669;42.678;23.332;2023-05-12T03:48:45;94792.75;;;6.99;100.00
13209;BME280;6669;42.678;23.332;2023-05-12T03:51:13;94793.72;;;6.98;100.00
13209;BME280;6669;42.678;23.332;2023-05-12T03:53:41;94796.06;;;6.91;100.00
13209;BME280;6669;42.678;23.332;2023-05-12T03:56:11;94797.09;;;6.98;100.00
13209;BME280;6669;42.678;23.332;2023-05-12T03:58:41;94791.94;;;6.98;100.00
13209;BME280;6669;42.678;23.332;2023-05-12T04:01:09;94804.31;;;6.95;100.00
13209;BME280;6669;42.678;23.332;2023-05-12T04:03:38;94802.41;;;6.97;100.00
13209;BME280;6669;42.678;23.332;2023-05-12T04:06:07;94800.25;;;6.92;100.00
13209;BME280;6669;42.678;23.332;2023-05-12T04:08:35;94793.19;;;6.94;100.00
13209;BME280;6669;42.678;23.332;2023-05-12T04:11:06;94813.25;;;7.10;100.00
13209;BME280;6669;42.678;23.332;2023-05-12T04:13:35;94802.38;;;7.07;100.00
13209;BME280;6669;42.678;23.332;2023-05-12T04:16:03;94819.81;;;7.23;100.00
13209;BME280;6669;42.678;23.332;2023-05-12T04:18:32;94807.19;;;7.19;100.00
13209;BME280;6669;42.678;23.332;2023-05-12T04:21:03;94815.38;;;7.33;100.00
13209;BME280;6669;42.678;23.332;2023-05-12T04:23:31;94804.28;;;7.23;100.00
13209;BME280;6669;42.678;23.332;2023-05-12T04:26:02;94813.47;;;7.35;100.00
13209;BME280;6669;42.678;23.332;2023-05-12T04:28:30;94813.31;;;7.36;100.00
13209;BME280;6669;42.678;23.332;2023-05-12T04:31:01;94790.50;;;7.32;100.00
13209;BME280;6669;42.678;23.332;2023-05-12T04:33:30;94808.09;;;7.46;100.00
13209;BME280;6669;42.678;23.332;2023-05-12T04:35:58;94816.50;;;7.48;100.00
13209;BME280;6669;42.678;23.332;2023-05-12T04:38:28;94819.59;;;7.52;100.00
13209;BME280;6669;42.678;23.332;2023-05-12T04:40:59;94801.13;;;7.47;100.00
13209;BME280;6669;42.678;23.332;2023-05-12T04:43:27;94806.22;;;7.57;100.00
13209;BME280;6669;42.678;23.332;2023-05-12T04:45:58;94815.78;;;7.56;100.00
13209;BME280;6669;42.678;23.332;2023-05-12T04:48:27;94815.09;;;7.54;100.00
13209;BME280;6669;42.678;23.332;2023-05-12T04:50:57;94787.91;;;7.32;100.00
13209;BME280;6669;42.678;23.332;2023-05-12T04:53:25;94810.44;;;7.40;100.00
13209;BME280;6669;42.678;23.332;2023-05-12T04:55:54;94800.53;;;7.35;100.00
13209;BME280;6669;42.678;23.332;2023-05-12T04:58:22;94792.78;;;7.35;100.00
13209;BME280;6669;42.678;23.332;2023-05-12T05:00:50;94800.91;;;7.40;100.00
13209;BME280;6669;42.678;23.332;2023-05-12T05:03:19;94817.47;;;7.47;100.00
13209;BME280;6669;42.678;23.332;2023-05-12T05:05:48;94808.09;;;7.46;100.00
13209;BME280;6669;42.678;23.332;2023-05-12T05:08:16;94817.09;;;7.60;100.00
13209;BME280;6669;42.678;23.332;2023-05-12T05:10:44;94788.66;;;7.42;100.00
13209;BME280;6669;42.678;23.332;2023-05-12T05:13:13;94813.25;;;7.46;100.00
13209;BME280;6669;42.678;23.332;2023-05-12T05:15:51;94826.13;;;7.56;100.00
13209;BME280;6669;42.678;23.332;2023-05-12T05:18:20;94828.41;;;7.59;100.00
13209;BME280;6669;42.678;23.332;2023-05-12T05:20:50;94825.00;;;7.59;100.00
13209;BME280;6669;42.678;23.332;2023-05-12T05:23:24;94822.63;;;7.65;100.00
13209;BME280;6669;42.678;23.332;2023-05-12T05:25:52;94825.28;;;7.74;100.00
13209;BME280;6669;42.678;23.332;2023-05-12T05:28:21;94838.06;;;7.93;100.00
13209;BME280;6669;42.678;23.332;2023-05-12T05:30:49;94834.22;;;7.97;100.00
13209;BME280;6669;42.678;23.332;2023-05-12T05:33:18;94836.06;;;7.87;100.00
13209;BME280;6669;42.678;23.332;2023-05-12T05:35:47;94810.94;;;7.79;100.00
13209;BME280;6669;42.678;23.332;2023-05-12T05:38:16;94833.75;;;8.02;100.00
13209;BME280;6669;42.678;23.332;2023-05-12T05:40:44;94827.72;;;7.93;100.00
13209;BME280;6669;42.678;23.332;2023-05-12T05:43:20;94824.53;;;7.99;100.00
13209;BME280;6669;42.678;23.332;2023-05-12T05:45:49;94830.56;;;8.08;100.00
13209;BME280;6669;42.678;23.332;2023-05-12T05:48:18;94814.69;;;8.03;100.00
13209;BME280;6669;42.678;23.332;2023-05-12T05:50:46;94842.81;;;8.24;100.00
13209;BME280;6669;42.678;23.332;2023-05-12T05:53:14;94805.28;;;8.02;100.00
13209;BME280;6669;42.678;23.332;2023-05-12T05:55:44;94840.56;;;8.29;100.00
13209;BME280;6669;42.678;23.332;2023-05-12T05:58:12;94827.47;;;8.05;100.00
13209;BME280;6669;42.678;23.332;2023-05-12T06:00:41;94844.13;;;8.28;100.00
13209;BME280;6669;42.678;23.332;2023-05-12T06:03:11;94848.19;;;8.31;100.00
13209;BME280;6669;42.678;23.332;2023-05-12T06:05:39;94826.56;;;8.14;100.00
13209;BME280;6669;42.678;23.332;2023-05-12T06:08:08;94847.03;;;8.25;100.00
13209;BME280;6669;42.678;23.332;2023-05-12T06:10:39;94845.94;;;8.36;100.00
13209;BME280;6669;42.678;23.332;2023-05-12T06:13:07;94852.47;;;8.40;100.00
13209;BME280;6669;42.678;23.332;2023-05-12T06:15:35;94840.47;;;8.39;100.00
13209;BME280;6669;42.678;23.332;2023-05-12T06:18:03;94854.50;;;8.55;100.00
13209;BME280;6669;42.678;23.332;2023-05-12T06:20:33;94855.47;;;8.54;100.00
13209;BME280;6669;42.678;23.332;2023-05-12T06:23:01;94857.66;;;8.66;100.00
13209;BME280;6669;42.678;23.332;2023-05-12T06:25:29;94836.44;;;8.45;100.00
13209;BME280;6669;42.678;23.332;2023-05-12T06:27:58;94854.56;;;8.63;100.00
13209;BME280;6669;42.678;23.332;2023-05-12T06:30:27;94860.44;;;8.73;100.00
13209;BME280;6669;42.678;23.332;2023-05-12T06:32:55;94867.88;;;8.68;100.00
13209;BME280;6669;42.678;23.332;2023-05-12T06:35:23;94876.72;;;8.57;100.00
13209;BME280;6669;42.678;23.332;2023-05-12T06:37:52;94872.72;;;8.63;100.00
13209;BME280;6669;42.678;23.332;2023-05-12T06:40:20;94870.13;;;8.63;100.00
13209;BME280;6669;42.678;23.332;2023-05-12T06:42:48;94864.81;;;8.73;100.00
13209;BME280;6669;42.678;23.332;2023-05-12T06:45:16;94874.72;;;8.77;100.00
13209;BME280;6669;42.678;23.332;2023-05-12T06:47:44;94878.47;;;8.83;100.00
13209;BME280;6669;42.678;23.332;2023-05-12T06:50:13;94861.94;;;8.76;100.00
13209;BME280;6669;42.678;23.332;2023-05-12T06:52:41;94873.09;;;8.76;100.00
13209;BME280;6669;42.678;23.332;2023-05-12T06:55:10;94882.34;;;8.79;100.00
13209;BME280;6669;42.678;23.332;2023-05-12T06:57:38;94879.06;;;8.77;100.00
13209;BME280;6669;42.678;23.332;2023-05-12T07:00:08;94872.81;;;8.88;100.00
13209;BME280;6669;42.678;23.332;2023-05-12T07:02:36;94835.25;;;8.57;100.00
13209;BME280;6669;42.678;23.332;2023-05-12T07:05:05;94877.31;;;8.77;100.00
13209;BME280;6669;42.678;23.332;2023-05-12T07:07:33;94869.53;;;8.77;100.00
13209;BME280;6669;42.678;23.332;2023-05-12T07:10:01;94878.03;;;8.96;100.00
13209;BME280;6669;42.678;23.332;2023-05-12T07:12:31;94885.34;;;9.00;100.00
13209;BME280;6669;42.678;23.332;2023-05-12T07:14:59;94853.56;;;8.90;100.00
13209;BME280;6669;42.678;23.332;2023-05-12T07:17:27;94866.41;;;9.00;100.00
13209;BME280;6669;42.678;23.332;2023-05-12T07:19:55;94884.22;;;9.03;100.00
13209;BME280;6669;42.678;23.332;2023-05-12T07:22:26;94859.78;;;9.06;100.00
13209;BME280;6669;42.678;23.332;2023-05-12T07:24:55;94877.75;;;8.99;100.00
13209;BME280;6669;42.678;23.332;2023-05-12T07:27:23;94874.03;;;9.02;100.00
13209;BME280;6669;42.678;23.332;2023-05-12T07:29:52;94900.03;;;9.26;100.00
13209;BME280;6669;42.678;23.332;2023-05-12T07:32:20;94878.31;;;9.27;100.00
13209;BME280;6669;42.678;23.332;2023-05-12T07:34:48;94842.91;;;9.02;100.00
13209;BME280;6669;42.678;23.332;2023-05-12T07:37:16;94873.97;;;9.28;100.00
13209;BME280;6669;42.678;23.332;2023-05-12T07:39:44;94887.28;;;9.33;100.00
13209;BME280;6669;42.678;23.332;2023-05-12T07:42:13;94869.69;;;9.19;100.00
13209;BME280;6669;42.678;23.332;2023-05-12T07:44:41;94881.41;;;9.31;100.00
13209;BME280;6669;42.678;23.332;2023-05-12T07:47:11;94861.56;;;9.13;100.00
13209;BME280;6669;42.678;23.332;2023-05-12T07:49:39;94887.63;;;9.46;100.00
13209;BME280;6669;42.678;23.332;2023-05-12T07:52:07;94864.09;;;9.40;100.00
13209;BME280;6669;42.678;23.332;2023-05-12T07:54:35;94892.69;;;9.64;100.00
13209;BME280;6669;42.678;23.332;2023-05-12T07:57:03;94883.28;;;9.72;100.00
13209;BME280;6669;42.678;23.332;2023-05-12T07:59:32;94872.94;;;9.80;100.00
13209;BME280;6669;42.678;23.332;2023-05-12T08:02:00;94875.69;;;10.03;100.00
13209;BME280;6669;42.678;23.332;2023-05-12T08:04:29;94862.06;;;10.09;100.00
13209;BME280;6669;42.678;23.332;2023-05-12T08:06:57;94888.38;;;10.39;100.00
13209;BME280;6669;42.678;23.332;2023-05-12T08:09:26;94871.47;;;10.43;100.00
13209;BME280;6669;42.678;23.332;2023-05-12T08:11:54;94882.97;;;10.66;100.00
13209;BME280;6669;42.678;23.332;2023-05-12T08:14:22;94864.78;;;10.66;100.00
13209;BME280;6669;42.678;23.332;2023-05-12T08:16:51;94891.72;;;10.73;100.00
13209;BME280;6669;42.678;23.332;2023-05-12T08:19:19;94878.41;;;10.76;100.00
13209;BME280;6669;42.678;23.332;2023-05-12T08:21:48;94880.50;;;10.81;100.00
13209;BME280;6669;42.678;23.332;2023-05-12T08:24:17;94870.78;;;10.74;100.00
13209;BME280;6669;42.678;23.332;2023-05-12T08:26:45;94881.78;;;10.85;100.00
13209;BME280;6669;42.678;23.332;2023-05-12T08:29:13;94892.38;;;10.83;100.00
13209;BME280;6669;42.678;23.332;2023-05-12T08:31:42;94886.09;;;11.09;100.00
13209;BME280;6669;42.678;23.332;2023-05-12T08:34:10;94898.19;;;11.33;100.00
13209;BME280;6669;42.678;23.332;2023-05-12T08:36:39;94891.91;;;11.19;100.00
13209;BME280;6669;42.678;23.332;2023-05-12T08:39:09;94888.00;;;11.23;100.00
13209;BME280;6669;42.678;23.332;2023-05-12T08:41:42;94901.00;;;11.23;100.00
13209;BME280;6669;42.678;23.332;2023-05-12T08:44:11;94887.66;;;11.26;100.00
13209;BME280;6669;42.678;23.332;2023-05-12T08:46:39;94892.16;;;11.41;100.00
13209;BME280;6669;42.678;23.332;2023-05-12T08:49:09;94876.44;;;11.26;100.00
13209;BME280;6669;42.678;23.332;2023-05-12T08:51:42;94896.63;;;11.55;100.00
13209;BME280;6669;42.678;23.332;2023-05-12T08:54:26;94893.50;;;11.60;100.00
13209;BME280;6669;42.678;23.332;2023-05-12T08:56:55;94871.31;;;11.41;100.00
13209;BME280;6669;42.678;23.332;2023-05-12T08:59:26;94903.66;;;11.78;100.00
13209;BME280;6669;42.678;23.332;2023-05-12T09:01:55;94892.94;;;11.73;100.00
13209;BME280;6669;42.678;23.332;2023-05-12T09:04:23;94903.16;;;11.83;100.00
13209;BME280;6669;42.678;23.332;2023-05-12T09:06:51;94887.84;;;11.80;100.00
13209;BME280;6669;42.678;23.332;2023-05-12T09:09:23;94883.50;;;11.72;100.00
13209;BME280;6669;42.678;23.332;2023-05-12T09:11:55;94879.44;;;11.69;100.00
13209;BME280;6669;42.678;23.332;2023-05-12T09:14:24;94883.94;;;11.84;100.00
13209;BME280;6669;42.678;23.332;2023-05-12T09:16:59;94880.31;;;11.85;100.00
13209;BME280;6669;42.678;23.332;2023-05-12T09:19:28;94881.47;;;11.82;100.00
13209;BME280;6669;42.678;23.332;2023-05-12T09:21:57;94876.06;;;11.69;100.00
13209;BME280;6669;42.678;23.332;2023-05-12T09:24:36;94876.75;;;11.86;100.00
13209;BME280;6669;42.678;23.332;2023-05-12T09:27:06;94891.91;;;11.82;100.00
13209;BME280;6669;42.678;23.332;2023-05-12T09:29:34;94869.19;;;11.76;100.00
13209;BME280;6669;42.678;23.332;2023-05-12T09:32:14;94876.47;;;12.04;100.00
13209;BME280;6669;42.678;23.332;2023-05-12T09:34:42;94877.88;;;12.15;100.00
13209;BME280;6669;42.678;23.332;2023-05-12T09:37:10;94871.88;;;12.29;100.00
13209;BME280;6669;42.678;23.332;2023-05-12T09:39:42;94850.38;;;12.12;100.00
13209;BME280;6669;42.678;23.332;2023-05-12T09:42:11;94854.59;;;12.13;100.00
13209;BME280;6669;42.678;23.332;2023-05-12T09:44:39;94883.00;;;12.23;100.00
13209;BME280;6669;42.678;23.332;2023-05-12T09:47:08;94882.31;;;12.29;100.00
13209;BME280;6669;42.678;23.332;2023-05-12T09:49:36;94878.31;;;12.41;100.00
13209;BME280;6669;42.678;23.332;2023-05-12T09:52:04;94841.72;;;11.97;100.00
13209;BME280;6669;42.678;23.332;2023-05-12T09:54:33;94876.63;;;12.25;100.00
13209;BME280;6669;42.678;23.332;2023-05-12T09:57:03;94839.72;;;12.22;100.00
13209;BME280;6669;42.678;23.332;2023-05-12T09:59:33;94875.31;;;12.45;100.00
13209;BME280;6669;42.678;23.332;2023-05-12T10:02:04;94862.22;;;12.53;100.00
13209;BME280;6669;42.678;23.332;2023-05-12T10:04:36;94849.72;;;12.48;100.00
13209;BME280;6669;42.678;23.332;2023-05-12T10:07:12;94877.34;;;12.57;100.00
13209;BME280;6669;42.678;23.332;2023-05-12T10:09:41;94867.38;;;12.76;100.00
13209;BME280;6669;42.678;23.332;2023-05-12T10:12:12;94840.38;;;12.69;100.00
13209;BME280;6669;42.678;23.332;2023-05-12T10:14:41;94857.47;;;12.86;100.00
13209;BME280;6669;42.678;23.332;2023-05-12T10:17:10;94856.75;;;13.07;100.00
13209;BME280;6669;42.678;23.332;2023-05-12T10:19:40;94851.41;;;13.16;100.00
13209;BME280;6669;42.678;23.332;2023-05-12T10:22:09;94859.97;;;13.39;100.00
13209;BME280;6669;42.678;23.332;2023-05-12T10:24:38;94845.06;;;13.55;100.00
13209;BME280;6669;42.678;23.332;2023-05-12T10:27:12;94858.59;;;13.29;100.00
13209;BME280;6669;42.678;23.332;2023-05-12T10:29:43;94838.38;;;13.16;100.00
13209;BME280;6669;42.678;23.332;2023-05-12T10:32:12;94807.94;;;13.38;100.00
13209;BME280;6669;42.678;23.332;2023-05-12T10:34:40;94840.25;;;13.73;100.00
13209;BME280;6669;42.678;23.332;2023-05-12T10:37:09;94836.91;;;14.01;100.00
13209;BME280;6669;42.678;23.332;2023-05-12T10:39:46;94844.41;;;14.11;100.00
13209;BME280;6669;42.678;23.332;2023-05-12T10:42:20;94812.88;;;13.91;100.00
13209;BME280;6669;42.678;23.332;2023-05-12T10:44:51;94818.69;;;14.15;100.00
13209;BME280;6669;42.678;23.332;2023-05-12T10:47:23;94821.06;;;14.38;100.00
13209;BME280;6669;42.678;23.332;2023-05-12T10:49:55;94843.66;;;14.46;100.00
13209;BME280;6669;42.678;23.332;2023-05-12T10:52:25;94839.47;;;14.23;100.00
13209;BME280;6669;42.678;23.332;2023-05-12T10:54:59;94840.81;;;14.41;100.00
13209;BME280;6669;42.678;23.332;2023-05-12T10:57:28;94844.50;;;14.53;100.00
13209;BME280;6669;42.678;23.332;2023-05-12T10:59:58;94820.13;;;14.74;100.00
13209;BME280;6669;42.678;23.332;2023-05-12T11:02:29;94841.25;;;15.14;100.00
13209;BME280;6669;42.678;23.332;2023-05-12T11:05:09;94849.69;;;15.51;100.00
13209;BME280;6669;42.678;23.332;2023-05-12T11:07:38;94824.22;;;15.39;100.00
13209;BME280;6669;42.678;23.332;2023-05-12T11:10:09;94841.47;;;15.13;100.00
13209;BME280;6669;42.678;23.332;2023-05-12T11:12:42;94821.94;;;15.22;100.00
13209;BME280;6669;42.678;23.332;2023-05-12T11:15:11;94852.47;;;15.50;100.00
13209;BME280;6669;42.678;23.332;2023-05-12T11:17:40;94853.03;;;15.39;100.00
13209;BME280;6669;42.678;23.332;2023-05-12T11:20:09;94835.38;;;15.06;100.00
13209;BME280;6669;42.678;23.332;2023-05-12T11:22:39;94846.22;;;14.96;100.00
13209;BME280;6669;42.678;23.332;2023-05-12T11:25:09;94857.38;;;14.76;100.00
13209;BME280;6669;42.678;23.332;2023-05-12T11:27:37;94848.50;;;14.70;100.00
13209;BME280;6669;42.678;23.332;2023-05-12T11:30:10;94855.13;;;14.45;100.00
13209;BME280;6669;42.678;23.332;2023-05-12T11:32:39;94855.06;;;14.38;100.00
13209;BME280;6669;42.678;23.332;2023-05-12T11:35:09;94851.13;;;14.49;100.00
13209;BME280;6669;42.678;23.332;2023-05-12T11:37:38;94849.88;;;14.66;100.00
13209;BME280;6669;42.678;23.332;2023-05-12T11:40:14;94862.47;;;14.56;100.00
13209;BME280;6669;42.678;23.332;2023-05-12T11:42:43;94827.47;;;14.07;100.00
13209;BME280;6669;42.678;23.332;2023-05-12T11:45:23;94852.44;;;13.88;100.00
13209;BME280;6669;42.678;23.332;2023-05-12T11:47:52;94838.56;;;13.87;100.00
13209;BME280;6669;42.678;23.332;2023-05-12T11:50:22;94835.78;;;13.89;100.00
13209;BME280;6669;42.678;23.332;2023-05-12T11:52:51;94827.75;;;13.90;100.00
13209;BME280;6669;42.678;23.332;2023-05-12T11:55:21;94847.94;;;14.03;100.00
13209;BME280;6669;42.678;23.332;2023-05-12T11:57:58;94837.50;;;14.03;100.00
13209;BME280;6669;42.678;23.332;2023-05-12T12:00:30;94850.88;;;14.15;100.00
13209;BME280;6669;42.678;23.332;2023-05-12T12:03:09;94823.59;;;13.96;100.00
13209;BME280;6669;42.678;23.332;2023-05-12T12:05:38;94850.25;;;14.42;100.00
13209;BME280;6669;42.678;23.332;2023-05-12T12:08:09;94847.31;;;14.51;100.00
13209;BME280;6669;42.678;23.332;2023-05-12T12:10:42;94855.81;;;14.53;100.00
13209;BME280;6669;42.678;23.332;2023-05-12T12:13:10;94849.16;;;14.51;100.00
13209;BME280;6669;42.678;23.332;2023-05-12T12:15:40;94856.72;;;14.46;100.00
13209;BME280;6669;42.678;23.332;2023-05-12T12:18:08;94828.16;;;14.16;100.00
13209;BME280;6669;42.678;23.332;2023-05-12T12:20:36;94854.25;;;14.37;100.00
13209;BME280;6669;42.678;23.332;2023-05-12T12:23:05;94859.75;;;14.43;100.00
13209;BME280;6669;42.678;23.332;2023-05-12T12:25:33;94839.84;;;14.20;100.00
13209;BME280;6669;42.678;23.332;2023-05-12T12:28:01;94839.56;;;14.08;100.00
13209;BME280;6669;42.678;23.332;2023-05-12T12:30:29;94840.47;;;14.22;100.00
13209;BME280;6669;42.678;23.332;2023-05-12T12:32:58;94855.88;;;14.38;100.00
13209;BME280;6669;42.678;23.332;2023-05-12T12:35:27;94838.94;;;14.06;100.00
13209;BME280;6669;42.678;23.332;2023-05-12T12:37:55;94851.50;;;13.96;100.00
13209;BME280;6669;42.678;23.332;2023-05-12T12:40:23;94856.75;;;14.24;100.00
13209;BME280;6669;42.678;23.332;2023-05-12T12:42:51;94843.34;;;14.27;100.00
13209;BME280;6669;42.678;23.332;2023-05-12T12:45:20;94855.31;;;14.43;100.00
13209;BME280;6669;42.678;23.332;2023-05-12T12:47:50;94857.91;;;14.43;100.00
13209;BME280;6669;42.678;23.332;2023-05-12T12:50:21;94848.00;;;14.60;100.00
13209;BME280;6669;42.678;23.332;2023-05-12T12:52:52;94840.25;;;14.45;100.00
13209;BME280;6669;42.678;23.332;2023-05-12T12:55:21;94819.91;;;14.19;100.00
13209;BME280;6669;42.678;23.332;2023-05-12T12:57:49;94844.38;;;14.33;100.00
13209;BME280;6669;42.678;23.332;2023-05-12T13:00:18;94848.13;;;14.23;100.00
13209;BME280;6669;42.678;23.332;2023-05-12T13:02:46;94844.44;;;14.39;100.00
13209;BME280;6669;42.678;23.332;2023-05-12T13:05:15;94815.94;;;14.23;100.00